JAL511 RJTT-RJCC
Flight info
| Callsign | JAL511 |
|---|---|
| Flight time | 1h 5m |
| Altitude | 33000 |
| Route | BRUCE AGRIS Y11 SAMBO Y119 OHMAR Y13 SIRAO Y139 NAVER |
| Aircraft | A359/H-SDE2E3GHIJ3J4J5LM1ORWXY/LB1D1 |
Departure
| Time | 2026-05-04 14:11 |
|---|---|
| Airport | Tokyo Haneda International Airport (RJTT) |
Arrival
| Time | 2026-05-04 15:17 |
|---|---|
| Airport | New Chitose Airport (RJCC) |
| Time | Latitude | Longitude | Altitude | Speed | Heading |
|---|---|---|---|---|---|
| 2026-05-04 13:03 | 35.55022 | 139.78184 | 29 ft | 0 kts | 60° |
| 2026-05-04 13:52 | 35.55021 | 139.78183 | 29 ft | 3 kts | 60° |
| 2026-05-04 13:53 | 35.55008 | 139.78155 | 28 ft | 4 kts | 60° |
| 2026-05-04 13:53 | 35.54994 | 139.78126 | 27 ft | 4 kts | 60° |
| 2026-05-04 13:53 | 35.54981 | 139.78097 | 27 ft | 4 kts | 60° |
| 2026-05-04 13:54 | 35.54961 | 139.78048 | 26 ft | 4 kts | 91° |
| 2026-05-04 13:54 | 35.54964 | 139.78027 | 26 ft | 5 kts | 136° |
| 2026-05-04 13:54 | 35.54981 | 139.78015 | 27 ft | 4 kts | 149° |
| 2026-05-04 13:55 | 35.54937 | 139.78057 | 28 ft | 0 kts | 149° |
| 2026-05-04 14:02 | 35.54933 | 139.78060 | 28 ft | 3 kts | 152° |
| 2026-05-04 14:03 | 35.54902 | 139.78075 | 29 ft | 7 kts | 161° |
| 2026-05-04 14:03 | 35.54846 | 139.78108 | 29 ft | 11 kts | 150° |
| 2026-05-04 14:03 | 35.54777 | 139.78157 | 30 ft | 10 kts | 150° |
| 2026-05-04 14:03 | 35.54708 | 139.78206 | 30 ft | 13 kts | 150° |
| 2026-05-04 14:04 | 35.54518 | 139.78340 | 30 ft | 18 kts | 150° |
| 2026-05-04 14:04 | 35.54416 | 139.78412 | 30 ft | 16 kts | 150° |
| 2026-05-04 14:04 | 35.54326 | 139.78476 | 31 ft | 9 kts | 150° |
| 2026-05-04 14:05 | 35.54308 | 139.78586 | 34 ft | 7 kts | 64° |
| 2026-05-04 14:05 | 35.54336 | 139.78647 | 36 ft | 9 kts | 60° |
| 2026-05-04 14:05 | 35.54374 | 139.78728 | 38 ft | 13 kts | 59° |
| 2026-05-04 14:06 | 35.54425 | 139.78835 | 41 ft | 16 kts | 59° |
| 2026-05-04 14:06 | 35.54483 | 139.78956 | 46 ft | 17 kts | 60° |
| 2026-05-04 14:06 | 35.54552 | 139.79103 | 44 ft | 23 kts | 59° |
| 2026-05-04 14:06 | 35.54643 | 139.79296 | 35 ft | 30 kts | 60° |
| 2026-05-04 14:07 | 35.54738 | 139.79495 | 34 ft | 25 kts | 59° |
| 2026-05-04 14:07 | 35.54797 | 139.79629 | 31 ft | 0 kts | 73° |
| 2026-05-04 14:07 | 35.54799 | 139.79635 | 31 ft | 4 kts | 75° |
| 2026-05-04 14:07 | 35.54781 | 139.79685 | 32 ft | 10 kts | 152° |
| 2026-05-04 14:08 | 35.54699 | 139.79742 | 31 ft | 16 kts | 150° |
| 2026-05-04 14:08 | 35.54603 | 139.79809 | 31 ft | 17 kts | 150° |
| 2026-05-04 14:08 | 35.54490 | 139.79889 | 29 ft | 18 kts | 150° |
| 2026-05-04 14:08 | 35.54381 | 139.79966 | 28 ft | 19 kts | 150° |
| 2026-05-04 14:09 | 35.54238 | 139.80067 | 27 ft | 4 kts | 150° |
| 2026-05-04 14:09 | 35.54189 | 139.80112 | 28 ft | 10 kts | 120° |
| 2026-05-04 14:10 | 35.54255 | 139.80287 | 34 ft | 9 kts | 46° |
| 2026-05-04 14:10 | 35.54312 | 139.80273 | 34 ft | 10 kts | 329° |
| 2026-05-04 14:10 | 35.54433 | 139.80186 | 34 ft | 46 kts | 330° |
| 2026-05-04 14:10 | 35.54928 | 139.79837 | 35 ft | 117 kts | 329° |
| 2026-05-04 14:11 | 35.55750 | 139.79263 | 511 ft | 137 kts | 330° |
| 2026-05-04 14:11 | 35.57384 | 139.79392 | 2415 ft | 126 kts | 26° |
| 2026-05-04 14:11 | 35.58078 | 139.80207 | 2866 ft | 150 kts | 35° |
| 2026-05-04 14:12 | 35.58960 | 139.80969 | 3453 ft | 154 kts | 19° |
| 2026-05-04 14:12 | 35.59970 | 139.81584 | 3829 ft | 172 kts | 18° |
| 2026-05-04 14:12 | 35.62457 | 139.83070 | 4355 ft | 224 kts | 20° |
| 2026-05-04 14:13 | 35.63925 | 139.83978 | 4737 ft | 247 kts | 21° |
| 2026-05-04 14:13 | 35.65575 | 139.84718 | 5157 ft | 256 kts | 8° |
| 2026-05-04 14:13 | 35.67340 | 139.85161 | 5694 ft | 264 kts | 5° |
| 2026-05-04 14:13 | 35.69183 | 139.85478 | 6249 ft | 270 kts | 357° |
| 2026-05-04 14:14 | 35.71014 | 139.85099 | 6847 ft | 264 kts | 333° |
| 2026-05-04 14:14 | 35.74063 | 139.82666 | 8097 ft | 267 kts | 323° |
| 2026-05-04 14:14 | 35.75847 | 139.81844 | 8683 ft | 283 kts | 347° |
| 2026-05-04 14:15 | 35.79771 | 139.83037 | 9951 ft | 304 kts | 18° |
| 2026-05-04 14:15 | 35.83812 | 139.85168 | 10597 ft | 331 kts | 17° |
| 2026-05-04 14:16 | 35.88251 | 139.87432 | 11026 ft | 358 kts | 15° |
| 2026-05-04 14:16 | 35.90687 | 139.88102 | 11236 ft | 359 kts | 356° |
| 2026-05-04 14:17 | 35.95642 | 139.87736 | 12021 ft | 371 kts | 0° |
| 2026-05-04 14:17 | 35.98231 | 139.88199 | 12466 ft | 376 kts | 1° |
| 2026-05-04 14:17 | 36.03448 | 139.89072 | 13271 ft | 383 kts | 359° |
| 2026-05-04 14:18 | 36.06079 | 139.89980 | 13618 ft | 404 kts | 19° |
| 2026-05-04 14:18 | 36.10331 | 139.94778 | 14264 ft | 427 kts | 45° |
| 2026-05-04 14:19 | 36.15181 | 139.98630 | 14911 ft | 409 kts | 8° |
| 2026-05-04 14:19 | 36.17936 | 139.99473 | 15261 ft | 408 kts | 4° |
| 2026-05-04 14:19 | 36.20738 | 140.00242 | 15614 ft | 412 kts | 4° |
| 2026-05-04 14:19 | 36.23517 | 140.01001 | 15955 ft | 416 kts | 4° |
| 2026-05-04 14:20 | 36.26359 | 140.01782 | 16304 ft | 419 kts | 4° |
| 2026-05-04 14:20 | 36.29237 | 140.02386 | 16647 ft | 416 kts | 356° |
| 2026-05-04 14:20 | 36.32100 | 140.02557 | 16983 ft | 410 kts | 349° |
| 2026-05-04 14:21 | 36.37841 | 140.02267 | 17684 ft | 415 kts | 347° |
| 2026-05-04 14:21 | 36.40717 | 140.02156 | 18015 ft | 420 kts | 348° |
| 2026-05-04 14:21 | 36.43667 | 140.02077 | 18321 ft | 423 kts | 348° |
| 2026-05-04 14:21 | 36.46596 | 140.02012 | 18631 ft | 425 kts | 348° |
| 2026-05-04 14:22 | 36.49568 | 140.01947 | 18963 ft | 427 kts | 348° |
| 2026-05-04 14:22 | 36.52560 | 140.01875 | 19285 ft | 429 kts | 348° |
| 2026-05-04 14:22 | 36.55559 | 140.01796 | 19598 ft | 431 kts | 348° |
| 2026-05-04 14:22 | 36.58532 | 140.01712 | 19913 ft | 433 kts | 347° |
| 2026-05-04 14:23 | 36.64601 | 140.01535 | 20529 ft | 437 kts | 347° |
| 2026-05-04 14:23 | 36.67658 | 140.01446 | 20841 ft | 439 kts | 347° |
| 2026-05-04 14:23 | 36.70684 | 140.01358 | 21151 ft | 441 kts | 347° |
| 2026-05-04 14:24 | 36.73772 | 140.01269 | 21459 ft | 443 kts | 347° |
| 2026-05-04 14:24 | 36.76876 | 140.01177 | 21772 ft | 445 kts | 347° |
| 2026-05-04 14:24 | 36.79942 | 140.01087 | 22067 ft | 448 kts | 347° |
| 2026-05-04 14:24 | 36.83080 | 140.00995 | 22359 ft | 450 kts | 347° |
| 2026-05-04 14:25 | 36.86220 | 140.00901 | 22643 ft | 452 kts | 347° |
| 2026-05-04 14:25 | 36.92560 | 140.00715 | 23196 ft | 457 kts | 347° |
| 2026-05-04 14:25 | 36.95718 | 140.00622 | 23461 ft | 460 kts | 347° |
| 2026-05-04 14:26 | 36.98933 | 140.00527 | 23681 ft | 462 kts | 347° |
| 2026-05-04 14:26 | 37.02168 | 140.00480 | 23895 ft | 470 kts | 350° |
| 2026-05-04 14:26 | 37.05482 | 140.00890 | 24131 ft | 482 kts | 358° |
| 2026-05-04 14:26 | 37.08777 | 140.01578 | 24348 ft | 488 kts | 0° |
| 2026-05-04 14:27 | 37.12126 | 140.02394 | 24570 ft | 492 kts | 1° |
| 2026-05-04 14:27 | 37.15499 | 140.03280 | 24785 ft | 495 kts | 2° |
| 2026-05-04 14:27 | 37.17737 | 140.03880 | 24932 ft | 497 kts | 2° |
| 2026-05-04 14:27 | 37.21132 | 140.04794 | 25170 ft | 499 kts | 2° |
| 2026-05-04 14:28 | 37.24552 | 140.05708 | 25369 ft | 501 kts | 2° |
| 2026-05-04 14:28 | 37.27938 | 140.06602 | 25590 ft | 504 kts | 1° |
| 2026-05-04 14:28 | 37.31390 | 140.07503 | 25821 ft | 506 kts | 1° |
| 2026-05-04 14:28 | 37.34864 | 140.08409 | 26043 ft | 508 kts | 1° |
| 2026-05-04 14:29 | 37.41842 | 140.10223 | 26526 ft | 513 kts | 1° |
| 2026-05-04 14:29 | 37.48845 | 140.12044 | 27025 ft | 517 kts | 1° |
| 2026-05-04 14:30 | 37.52390 | 140.12968 | 27278 ft | 520 kts | 1° |
| 2026-05-04 14:30 | 37.55898 | 140.13886 | 27546 ft | 522 kts | 0° |
| 2026-05-04 14:30 | 37.63060 | 140.15755 | 28102 ft | 526 kts | 0° |
| 2026-05-04 14:31 | 37.66645 | 140.16688 | 28340 ft | 529 kts | 0° |
| 2026-05-04 14:31 | 37.73889 | 140.18582 | 28893 ft | 535 kts | 0° |
| 2026-05-04 14:32 | 37.81203 | 140.20501 | 29344 ft | 541 kts | 0° |
| 2026-05-04 14:32 | 37.84911 | 140.21477 | 29589 ft | 544 kts | 0° |
| 2026-05-04 14:32 | 37.88653 | 140.22463 | 29879 ft | 546 kts | 0° |
| 2026-05-04 14:32 | 37.92338 | 140.23434 | 30105 ft | 550 kts | 0° |
| 2026-05-04 14:33 | 37.96092 | 140.24423 | 30343 ft | 552 kts | 0° |
| 2026-05-04 14:33 | 38.00016 | 140.25458 | 30599 ft | 555 kts | 1° |
| 2026-05-04 14:33 | 38.03640 | 140.26415 | 30847 ft | 558 kts | 1° |
| 2026-05-04 14:33 | 38.07472 | 140.27429 | 31109 ft | 560 kts | 1° |
| 2026-05-04 14:34 | 38.11291 | 140.28443 | 31362 ft | 562 kts | 1° |
| 2026-05-04 14:34 | 38.15100 | 140.29455 | 31633 ft | 564 kts | 1° |
| 2026-05-04 14:34 | 38.18971 | 140.30484 | 31865 ft | 567 kts | 1° |
| 2026-05-04 14:34 | 38.22857 | 140.31518 | 32083 ft | 569 kts | 1° |
| 2026-05-04 14:35 | 38.26705 | 140.32541 | 32312 ft | 572 kts | 1° |
| 2026-05-04 14:35 | 38.30618 | 140.33583 | 32545 ft | 574 kts | 1° |
| 2026-05-04 14:35 | 38.34554 | 140.34632 | 32775 ft | 577 kts | 1° |
| 2026-05-04 14:35 | 38.38496 | 140.35686 | 32901 ft | 575 kts | 1° |
| 2026-05-04 14:36 | 38.42358 | 140.36766 | 32906 ft | 575 kts | 2° |
| 2026-05-04 14:36 | 38.50162 | 140.39271 | 32896 ft | 577 kts | 4° |
| 2026-05-04 14:37 | 38.57893 | 140.41854 | 32887 ft | 577 kts | 4° |
| 2026-05-04 14:37 | 38.65697 | 140.44414 | 32882 ft | 577 kts | 4° |
| 2026-05-04 14:38 | 38.73483 | 140.46936 | 32880 ft | 578 kts | 4° |
| 2026-05-04 14:38 | 38.81312 | 140.49465 | 32892 ft | 579 kts | 4° |
| 2026-05-04 14:39 | 38.89076 | 140.51985 | 32883 ft | 578 kts | 4° |
| 2026-05-04 14:39 | 38.96846 | 140.54509 | 32883 ft | 578 kts | 4° |
| 2026-05-04 14:40 | 39.08572 | 140.58341 | 32866 ft | 578 kts | 5° |
| 2026-05-04 14:40 | 39.16348 | 140.60887 | 32863 ft | 578 kts | 5° |
| 2026-05-04 14:41 | 39.24162 | 140.63455 | 32873 ft | 577 kts | 5° |
| 2026-05-04 14:42 | 39.39711 | 140.68582 | 32862 ft | 574 kts | 5° |
| 2026-05-04 14:42 | 39.47460 | 140.71149 | 32854 ft | 573 kts | 6° |
| 2026-05-04 14:43 | 39.55141 | 140.73705 | 32846 ft | 572 kts | 6° |
| 2026-05-04 14:43 | 39.62856 | 140.76264 | 32844 ft | 571 kts | 6° |
| 2026-05-04 14:44 | 39.70571 | 140.78832 | 32855 ft | 571 kts | 6° |
| 2026-05-04 14:44 | 39.78233 | 140.81393 | 32838 ft | 570 kts | 6° |
| 2026-05-04 14:45 | 39.85886 | 140.83956 | 32836 ft | 569 kts | 6° |
| 2026-05-04 14:45 | 39.93555 | 140.86532 | 32820 ft | 568 kts | 6° |
| 2026-05-04 14:46 | 40.01218 | 140.89106 | 32818 ft | 567 kts | 6° |
| 2026-05-04 14:46 | 40.08841 | 140.91673 | 32802 ft | 568 kts | 7° |
| 2026-05-04 14:47 | 40.16501 | 140.94230 | 32803 ft | 566 kts | 4° |
| 2026-05-04 14:47 | 40.20365 | 140.94950 | 32807 ft | 553 kts | 354° |
| 2026-05-04 14:47 | 40.24171 | 140.95243 | 32807 ft | 550 kts | 353° |
| 2026-05-04 14:48 | 40.31823 | 140.95553 | 32796 ft | 548 kts | 352° |
| 2026-05-04 14:48 | 40.39451 | 140.95752 | 32789 ft | 548 kts | 352° |
| 2026-05-04 14:49 | 40.47063 | 140.95968 | 32783 ft | 547 kts | 352° |
| 2026-05-04 14:49 | 40.54660 | 140.96211 | 32773 ft | 547 kts | 353° |
| 2026-05-04 14:50 | 40.62292 | 140.96467 | 32761 ft | 547 kts | 353° |
| 2026-05-04 14:50 | 40.69867 | 140.96721 | 32767 ft | 546 kts | 353° |
| 2026-05-04 14:51 | 40.77482 | 140.96977 | 32765 ft | 546 kts | 353° |
| 2026-05-04 14:51 | 40.85033 | 140.97228 | 32761 ft | 544 kts | 353° |
| 2026-05-04 14:52 | 40.92623 | 140.97478 | 32603 ft | 547 kts | 353° |
| 2026-05-04 14:52 | 40.96407 | 140.97599 | 32183 ft | 546 kts | 353° |
| 2026-05-04 14:52 | 41.00216 | 140.97729 | 31366 ft | 546 kts | 353° |
| 2026-05-04 14:53 | 41.04048 | 140.97857 | 30379 ft | 550 kts | 353° |
| 2026-05-04 14:53 | 41.07883 | 140.97983 | 29543 ft | 550 kts | 353° |
| 2026-05-04 14:53 | 41.11658 | 140.98111 | 28860 ft | 544 kts | 354° |
| 2026-05-04 14:53 | 41.15405 | 140.98240 | 28191 ft | 537 kts | 354° |
| 2026-05-04 14:54 | 41.19139 | 140.98368 | 27537 ft | 530 kts | 355° |
| 2026-05-04 14:54 | 41.22811 | 140.98493 | 26884 ft | 523 kts | 355° |
| 2026-05-04 14:54 | 41.26428 | 140.98616 | 26244 ft | 516 kts | 355° |
| 2026-05-04 14:54 | 41.29999 | 140.98951 | 25606 ft | 514 kts | 4° |
| 2026-05-04 14:55 | 41.33430 | 141.00070 | 25047 ft | 511 kts | 13° |
| 2026-05-04 14:55 | 41.36803 | 141.01525 | 24527 ft | 503 kts | 15° |
| 2026-05-04 14:55 | 41.40081 | 141.03092 | 23970 ft | 496 kts | 17° |
| 2026-05-04 14:55 | 41.43252 | 141.04681 | 23385 ft | 479 kts | 17° |
| 2026-05-04 14:56 | 41.46276 | 141.06225 | 22436 ft | 453 kts | 17° |
| 2026-05-04 14:56 | 41.49168 | 141.07710 | 21843 ft | 437 kts | 17° |
| 2026-05-04 14:56 | 41.51993 | 141.09138 | 21281 ft | 431 kts | 16° |
| 2026-05-04 14:56 | 41.54760 | 141.10518 | 20722 ft | 425 kts | 16° |
| 2026-05-04 14:57 | 41.57512 | 141.11883 | 20169 ft | 419 kts | 16° |
| 2026-05-04 14:57 | 41.60213 | 141.13219 | 19612 ft | 414 kts | 16° |
| 2026-05-04 14:57 | 41.62906 | 141.14551 | 19071 ft | 409 kts | 16° |
| 2026-05-04 14:57 | 41.65572 | 141.15870 | 18518 ft | 405 kts | 15° |
| 2026-05-04 14:58 | 41.68213 | 141.17178 | 17959 ft | 401 kts | 15° |
| 2026-05-04 14:58 | 41.70783 | 141.18463 | 17364 ft | 396 kts | 16° |
| 2026-05-04 14:58 | 41.73354 | 141.19761 | 16810 ft | 391 kts | 16° |
| 2026-05-04 14:58 | 41.75889 | 141.21046 | 16265 ft | 387 kts | 15° |
| 2026-05-04 14:59 | 41.78406 | 141.22322 | 15722 ft | 383 kts | 15° |
| 2026-05-04 14:59 | 41.80857 | 141.23566 | 15188 ft | 379 kts | 15° |
| 2026-05-04 14:59 | 41.85758 | 141.26056 | 14119 ft | 371 kts | 15° |
| 2026-05-04 15:00 | 41.88143 | 141.27268 | 13599 ft | 368 kts | 15° |
| 2026-05-04 15:00 | 41.90530 | 141.28485 | 13027 ft | 363 kts | 15° |
| 2026-05-04 15:00 | 41.92882 | 141.29682 | 12524 ft | 357 kts | 15° |
| 2026-05-04 15:01 | 41.97274 | 141.32673 | 11655 ft | 360 kts | 32° |
| 2026-05-04 15:01 | 41.99168 | 141.34882 | 11128 ft | 358 kts | 37° |
| 2026-05-04 15:01 | 42.00922 | 141.37110 | 10974 ft | 342 kts | 38° |
| 2026-05-04 15:01 | 42.02605 | 141.39269 | 10855 ft | 325 kts | 37° |
| 2026-05-04 15:02 | 42.04210 | 141.41330 | 10748 ft | 310 kts | 37° |
| 2026-05-04 15:02 | 42.05723 | 141.43271 | 10640 ft | 296 kts | 37° |
| 2026-05-04 15:02 | 42.07185 | 141.45149 | 10515 ft | 284 kts | 37° |
| 2026-05-04 15:02 | 42.08589 | 141.46951 | 10385 ft | 273 kts | 37° |
| 2026-05-04 15:03 | 42.09951 | 141.48699 | 10227 ft | 267 kts | 37° |
| 2026-05-04 15:03 | 42.11278 | 141.50400 | 9957 ft | 265 kts | 37° |
| 2026-05-04 15:03 | 42.12687 | 141.52079 | 9726 ft | 273 kts | 30° |
| 2026-05-04 15:03 | 42.14337 | 141.53300 | 9530 ft | 267 kts | 17° |
| 2026-05-04 15:04 | 42.16050 | 141.54254 | 9185 ft | 264 kts | 16° |
| 2026-05-04 15:04 | 42.17722 | 141.55154 | 8899 ft | 260 kts | 16° |
| 2026-05-04 15:04 | 42.19389 | 141.56058 | 8645 ft | 254 kts | 17° |
| 2026-05-04 15:04 | 42.21013 | 141.56947 | 8405 ft | 247 kts | 17° |
| 2026-05-04 15:05 | 42.22581 | 141.57807 | 8154 ft | 245 kts | 17° |
| 2026-05-04 15:05 | 42.24157 | 141.58673 | 7917 ft | 243 kts | 17° |
| 2026-05-04 15:05 | 42.25724 | 141.59537 | 7683 ft | 240 kts | 17° |
| 2026-05-04 15:05 | 42.27251 | 141.60380 | 7432 ft | 238 kts | 17° |
| 2026-05-04 15:06 | 42.28776 | 141.61223 | 7222 ft | 235 kts | 17° |
| 2026-05-04 15:06 | 42.30292 | 141.62062 | 6968 ft | 233 kts | 17° |
| 2026-05-04 15:06 | 42.31767 | 141.62877 | 6734 ft | 230 kts | 18° |
| 2026-05-04 15:07 | 42.34698 | 141.64500 | 6278 ft | 224 kts | 18° |
| 2026-05-04 15:07 | 42.36120 | 141.65288 | 6036 ft | 222 kts | 18° |
| 2026-05-04 15:07 | 42.37540 | 141.66076 | 5806 ft | 220 kts | 18° |
| 2026-05-04 15:07 | 42.38961 | 141.66865 | 5572 ft | 219 kts | 18° |
| 2026-05-04 15:08 | 42.40378 | 141.67651 | 5350 ft | 219 kts | 18° |
| 2026-05-04 15:08 | 42.41412 | 141.68225 | 5183 ft | 218 kts | 18° |
| 2026-05-04 15:08 | 42.42762 | 141.68972 | 4961 ft | 218 kts | 17° |
| 2026-05-04 15:08 | 42.44178 | 141.69708 | 4728 ft | 216 kts | 15° |
| 2026-05-04 15:09 | 42.45581 | 141.70355 | 4498 ft | 215 kts | 13° |
| 2026-05-04 15:09 | 42.47012 | 141.70930 | 4263 ft | 213 kts | 12° |
| 2026-05-04 15:09 | 42.48448 | 141.71420 | 4169 ft | 211 kts | 9° |
| 2026-05-04 15:10 | 42.51179 | 141.72130 | 4009 ft | 191 kts | 6° |
| 2026-05-04 15:10 | 42.52495 | 141.72365 | 3916 ft | 190 kts | 4° |
| 2026-05-04 15:10 | 42.55114 | 141.72637 | 3755 ft | 188 kts | 1° |
| 2026-05-04 15:11 | 42.56411 | 141.72705 | 3674 ft | 188 kts | 3° |
| 2026-05-04 15:11 | 42.57716 | 141.72786 | 3579 ft | 187 kts | 357° |
| 2026-05-04 15:11 | 42.59010 | 141.72621 | 3346 ft | 186 kts | 353° |
| 2026-05-04 15:11 | 42.60287 | 141.72413 | 3094 ft | 187 kts | 353° |
| 2026-05-04 15:12 | 42.61558 | 141.72187 | 2920 ft | 181 kts | 353° |
| 2026-05-04 15:12 | 42.62769 | 141.71981 | 2831 ft | 172 kts | 353° |
| 2026-05-04 15:12 | 42.63944 | 141.71801 | 2620 ft | 168 kts | 353° |
| 2026-05-04 15:12 | 42.64700 | 141.71675 | 2487 ft | 157 kts | 352° |
| 2026-05-04 15:13 | 42.66055 | 141.71431 | 2197 ft | 138 kts | 351° |
| 2026-05-04 15:13 | 42.66975 | 141.71270 | 1986 ft | 129 kts | 351° |
| 2026-05-04 15:13 | 42.67862 | 141.71113 | 1807 ft | 126 kts | 351° |
| 2026-05-04 15:13 | 42.68668 | 141.70972 | 1640 ft | 111 kts | 350° |
| 2026-05-04 15:14 | 42.69159 | 141.70886 | 1532 ft | 104 kts | 350° |
| 2026-05-04 15:14 | 42.69874 | 141.70759 | 1396 ft | 103 kts | 350° |
| 2026-05-04 15:14 | 42.70828 | 141.70590 | 1185 ft | 106 kts | 349° |
| 2026-05-04 15:14 | 42.71557 | 141.70461 | 1020 ft | 107 kts | 350° |
| 2026-05-04 15:15 | 42.72294 | 141.70337 | 861 ft | 107 kts | 352° |
| 2026-05-04 15:15 | 42.72790 | 141.70259 | 787 ft | 109 kts | 351° |
| 2026-05-04 15:15 | 42.73545 | 141.70131 | 639 ft | 109 kts | 349° |
| 2026-05-04 15:16 | 42.75042 | 141.69866 | 352 ft | 108 kts | 351° |
| 2026-05-04 15:16 | 42.75782 | 141.69723 | 208 ft | 107 kts | 351° |
| 2026-05-04 15:16 | 42.77192 | 141.69463 | 69 ft | 81 kts | 356° |
| 2026-05-04 15:17 | 42.77483 | 141.69421 | 72 ft | 0 kts | 353° |
| 2026-05-04 15:17 | 42.77639 | 141.69391 | 66 ft | 19 kts | 352° |
| 2026-05-04 15:17 | 42.77771 | 141.69329 | 61 ft | 20 kts | 327° |
| 2026-05-04 15:18 | 42.77864 | 141.69232 | 66 ft | 15 kts | 321° |
| 2026-05-04 15:18 | 42.77873 | 141.69221 | 62 ft | 0 kts | 321° |
| 2026-05-04 15:18 | 42.77894 | 141.69199 | 66 ft | 7 kts | 321° |
| 2026-05-04 15:19 | 42.78049 | 141.69039 | 61 ft | 10 kts | 323° |
| 2026-05-04 15:19 | 42.78104 | 141.68983 | 63 ft | 14 kts | 322° |
| 2026-05-04 15:19 | 42.78235 | 141.68845 | 65 ft | 4 kts | 322° |
| 2026-05-04 15:20 | 42.78288 | 141.68791 | 70 ft | 14 kts | 323° |
| 2026-05-04 15:20 | 42.78377 | 141.68698 | 66 ft | 16 kts | 323° |
| 2026-05-04 15:20 | 42.78440 | 141.68658 | 62 ft | 12 kts | 350° |
| 2026-05-04 15:20 | 42.78544 | 141.68637 | 65 ft | 19 kts | 353° |
| 2026-05-04 15:21 | 42.78645 | 141.68622 | 65 ft | 7 kts | 353° |
| 2026-05-04 15:21 | 42.78676 | 141.68564 | 67 ft | 10 kts | 269° |
| 2026-05-04 15:21 | 42.78732 | 141.68421 | 65 ft | 12 kts | 352° |
| 2026-05-04 15:22 | 42.78794 | 141.68496 | 74 ft | 13 kts | 76° |
| 2026-05-04 15:22 | 42.78781 | 141.68596 | 68 ft | 9 kts | 142° |
| 2026-05-04 15:22 | 42.78676 | 141.68525 | 66 ft | 11 kts | 262° |
| 2026-05-04 15:23 | 42.78668 | 141.68449 | 70 ft | 8 kts | 258° |
| 2026-05-04 15:23 | 42.78618 | 141.68387 | 65 ft | 8 kts | 202° |
| 2026-05-04 15:23 | 42.78590 | 141.68335 | 68 ft | 5 kts | 279° |
| 2026-05-04 15:23 | 42.78602 | 141.68288 | 68 ft | 1 kts | 290° |
| 2026-05-04 15:24 | 42.78614 | 141.68250 | 69 ft | 0 kts | 292° |